Time;durP1;ratioP1;P1;durP2;ratioP2;P2;SDS_P1;SDS_P2;PMS_P1;PMS_P2;Temp;Humidity;BMP_temperature;BMP_pressure;BME280_temperature;BME280_humidity;BME280_pressure;Samples;Min_cycle;Max_cycle;Signal;HPM_P1;HPM_P2
2022/12/18 00:04:30;;;;;;;46.73;26.07;;;;;;;-9.12;58.63;100962.69;10402336;28;20247;-63
2022/12/18 00:09:32;;;;;;;48.90;26.57;;;;;;;-7.96;57.89;100812.19;10422293;28;20243;-64
2022/12/18 00:14:41;;;;;;;51.33;27.77;;;;;;;-8.95;59.03;100912.25;10427444;28;20238;-63
2022/12/18 00:19:42;;;;;;;45.20;25.93;;;;;;;-7.92;57.72;100782.59;10417770;28;20236;-63
2022/12/18 00:24:44;;;;;;;48.13;27.30;;;;;;;-7.20;55.70;100745.91;10427919;28;20220;-64
2022/12/18 00:29:46;;;;;;;45.30;26.57;;;;;;;-7.16;55.21;100790.03;10412556;28;20298;-63
2022/12/18 00:34:47;;;;;;;49.73;26.27;;;;;;;-8.44;56.05;100953.56;10433006;28;20923;-64
2022/12/18 00:39:49;;;;;;;55.47;27.33;;;;;;;-7.61;55.35;100829.44;10428252;28;20264;-63
2022/12/18 00:44:51;;;;;;;83.80;39.07;;;;;;;-7.55;55.48;100812.81;10418252;28;20316;-64
2022/12/18 00:49:53;;;;;;;46.53;26.77;;;;;;;-7.48;54.85;100839.50;10425818;28;20721;-66
2022/12/18 00:54:54;;;;;;;63.53;31.13;;;;;;;-7.19;54.91;100816.13;10414517;28;20239;-64
2022/12/18 00:59:56;;;;;;;52.20;27.40;;;;;;;-7.43;55.38;100806.41;10429207;28;20336;-64
2022/12/18 01:04:58;;;;;;;46.73;24.00;;;;;;;-7.04;55.64;100754.97;10417124;28;20312;-64
2022/12/18 01:09:59;;;;;;;46.10;25.57;;;;;;;-7.65;56.03;100840.81;10412013;28;20306;-64
2022/12/18 01:15:02;;;;;;;50.23;26.60;;;;;;;-7.95;56.65;100853.72;10424134;28;20236;-64
2022/12/18 01:20:04;;;;;;;56.83;28.07;;;;;;;-7.73;57.03;100804.63;10416320;28;20233;-63
2022/12/18 01:25:06;;;;;;;53.20;26.23;;;;;;;-7.82;55.67;100871.59;10420301;28;20252;-63
2022/12/18 01:30:09;;;;;;;50.77;28.53;;;;;;;-8.33;56.93;100899.63;10417133;28;20837;-64
2022/12/18 01:35:10;;;;;;;43.50;24.53;;;;;;;-7.80;55.60;100881.06;10410853;28;20308;-63
2022/12/18 01:40:12;;;;;;;50.83;25.73;;;;;;;-7.70;55.48;100859.13;10428977;28;20252;-66
2022/12/18 01:45:14;;;;;;;47.27;24.50;;;;;;;-8.12;56.75;100869.72;10408966;28;20234;-64
2022/12/18 01:50:28;;;;;;;42.87;25.57;;;;;;;-8.24;57.16;100874.34;10429712;28;20244;-63
2022/12/18 01:55:34;;;;;;;54.53;26.13;;;;;;;-8.68;57.61;100928.97;10411487;28;20236;-65
2022/12/18 02:00:36;;;;;;;45.37;25.87;;;;;;;-7.51;55.48;100817.88;10418406;28;20294;-64
2022/12/18 02:06:04;;;;;;;49.67;24.53;;;;;;;-7.43;54.86;100841.09;10423177;28;20243;-64
2022/12/18 02:11:49;;;;;;;41.37;24.90;;;;;;;-7.86;54.61;100935.78;10412137;28;20242;-64
2022/12/18 02:16:53;;;;;;;49.97;26.43;;;;;;;-7.50;54.09;100881.13;10422634;28;20620;-64
2022/12/18 02:22:01;;;;;;;45.90;24.70;;;;;;;-7.32;54.16;100856.38;10408207;28;20236;-64
2022/12/18 02:27:06;;;;;;;46.27;26.20;;;;;;;-7.44;54.30;100854.97;10419608;28;20229;-65
2022/12/18 02:32:17;;;;;;;43.70;25.83;;;;;;;-7.46;53.94;100902.72;10413757;28;20245;-64
2022/12/18 02:37:20;;;;;;;40.20;23.70;;;;;;;-7.20;54.10;100830.00;10410906;28;20229;-65
2022/12/18 02:42:23;;;;;;;47.90;24.87;;;;;;;-7.05;53.88;100817.47;10419520;28;20234;-63
2022/12/18 02:47:31;;;;;;;45.07;22.57;;;;;;;-7.41;53.80;100893.06;10407551;28;20245;-65
2022/12/18 02:52:48;;;;;;;42.13;23.23;;;;;;;-8.11;54.09;100996.13;10426361;28;20243;-64
2022/12/18 02:57:53;;;;;;;44.00;25.20;;;;;;;-7.61;54.34;100922.19;10412916;28;20760;-65
2022/12/18 03:03:05;;;;;;;44.00;24.23;;;;;;;-7.34;53.46;100916.25;10420161;28;20229;-64
2022/12/18 03:08:33;;;;;;;42.27;24.50;;;;;;;-7.45;53.67;100914.81;10421761;28;20243;-66
2022/12/18 03:13:48;;;;;;;44.07;23.73;;;;;;;-7.21;53.26;100893.38;10412462;28;20802;-65
2022/12/18 03:18:54;;;;;;;43.43;24.03;;;;;;;-7.29;53.87;100902.28;10418065;28;20244;-65
2022/12/18 03:23:56;;;;;;;44.10;21.87;;;;;;;-7.50;53.42;100972.13;10409835;28;20234;-64
2022/12/18 03:29:08;;;;;;;44.10;23.90;;;;;;;-6.91;52.91;100909.03;10424817;28;20238;-64
2022/12/18 03:34:17;;;;;;;48.63;24.87;;;;;;;-7.35;53.05;100943.16;10419568;28;20228;-65
2022/12/18 03:39:19;;;;;;;38.43;21.90;;;;;;;-8.18;54.97;100978.94;10406968;28;20237;-65
2022/12/18 03:44:47;;;;;;;38.47;24.00;;;;;;;-7.86;55.04;100904.59;10422555;28;20501;-63
2022/12/18 03:49:59;;;;;;;45.40;25.10;;;;;;;-7.15;53.92;100893.16;10419046;28;20281;-65
2022/12/18 03:55:03;;;;;;;42.97;23.93;;;;;;;-7.63;54.31;100926.56;10435506;28;20243;-64
2022/12/18 04:00:10;;;;;;;38.87;23.00;;;;;;;-7.06;53.65;100879.06;10420632;28;20240;-64
2022/12/18 04:05:14;;;;;;;38.33;23.40;;;;;;;-7.79;55.04;100946.88;10428530;28;20240;-64
2022/12/18 04:10:17;;;;;;;37.73;21.50;;;;;;;-7.37;53.85;100921.53;10429263;28;20293;-65
2022/12/18 04:15:18;;;;;;;35.30;22.37;;;;;;;-6.93;53.08;100879.56;10413790;28;20710;-64
2022/12/18 04:20:20;;;;;;;38.00;22.87;;;;;;;-6.65;53.02;100857.91;10431501;28;20256;-65
2022/12/18 04:25:22;;;;;;;40.23;24.00;;;;;;;-8.00;53.87;101021.84;10414098;28;21076;-64
2022/12/18 04:30:23;;;;;;;35.87;21.07;;;;;;;-7.30;53.50;100942.19;10465632;28;20253;-64
2022/12/18 04:35:25;;;;;;;37.90;22.57;;;;;;;-8.05;54.59;101013.31;10469358;28;20235;-64
2022/12/18 04:40:27;;;;;;;39.43;23.83;;;;;;;-7.78;54.72;100982.38;10451712;28;20765;-65
2022/12/18 04:45:30;;;;;;;43.37;26.57;;;;;;;-9.26;57.96;101055.47;10465588;28;20232;-65
2022/12/18 04:50:32;;;;;;;42.00;26.37;;;;;;;-8.31;56.78;100972.31;10445261;28;20234;-65
2022/12/18 04:55:34;;;;;;;39.90;24.87;;;;;;;-7.45;56.28;100865.41;10443093;28;20278;-65
2022/12/18 05:00:35;;;;;;;40.27;22.70;;;;;;;-7.90;54.62;101017.31;10453249;28;20244;-64
2022/12/18 05:05:37;;;;;;;40.57;24.43;;;;;;;-8.67;56.66;101063.91;10444060;28;20263;-64
2022/12/18 05:10:39;;;;;;;48.33;26.23;;;;;;;-7.77;56.13;100926.91;10429070;28;20242;-64
2022/12/18 05:15:41;;;;;;;41.70;24.57;;;;;;;-8.54;56.08;101054.16;10420967;28;20237;-65
2022/12/18 05:20:43;;;;;;;42.07;24.17;;;;;;;-7.57;54.81;100940.28;10424438;28;20247;-63
2022/12/18 05:25:59;;;;;;;42.57;25.00;;;;;;;-7.89;56.25;100928.06;10428090;28;20272;-63
2022/12/18 05:31:03;;;;;;;42.47;25.47;;;;;;;-9.32;58.29;101094.44;10414772;28;20224;-65
2022/12/18 05:36:07;;;;;;;44.67;25.60;;;;;;;-6.82;54.57;100814.19;10426116;28;20299;-64
2022/12/18 05:41:09;;;;;;;43.60;24.07;;;;;;;-7.42;55.29;100902.59;10413338;28;20245;-65
2022/12/18 05:46:14;;;;;;;43.93;24.07;;;;;;;-7.89;56.33;100928.94;10423079;28;20236;-64
2022/12/18 05:51:20;;;;;;;42.37;25.97;;;;;;;-8.85;57.02;101048.69;10416403;28;20233;-64
2022/12/18 05:56:22;;;;;;;39.13;25.73;;;;;;;-7.76;55.92;100928.63;10424556;28;20285;-64
2022/12/18 06:01:26;;;;;;;46.47;26.87;;;;;;;-8.04;56.43;100944.84;10423998;28;20237;-65
2022/12/18 06:06:28;;;;;;;44.93;25.10;;;;;;;-8.50;56.70;101013.41;10416988;28;20229;-64
2022/12/18 06:11:30;;;;;;;44.07;25.50;;;;;;;-7.41;55.55;100901.72;10427370;28;20233;-64
2022/12/18 06:16:32;;;;;;;44.90;25.33;;;;;;;-7.65;55.19;100967.34;10415163;28;20356;-64
2022/12/18 06:21:34;;;;;;;44.43;25.50;;;;;;;-7.35;55.49;100906.75;10411053;28;20244;-64
2022/12/18 06:26:38;;;;;;;45.60;24.50;;;;;;;-7.49;55.04;100950.47;10425914;28;20243;-64
2022/12/18 06:31:40;;;;;;;44.33;25.70;;;;;;;-8.31;56.09;101039.84;10415619;28;20286;-63
2022/12/18 06:36:42;;;;;;;45.47;24.57;;;;;;;-7.18;55.35;100869.00;10425788;28;20276;-65
2022/12/18 06:41:44;;;;;;;44.63;26.37;;;;;;;-7.69;54.95;100995.16;10411231;28;20235;-65
2022/12/18 06:46:46;;;;;;;47.13;27.07;;;;;;;-6.90;53.93;100936.72;10415315;28;20670;-64
2022/12/18 06:51:48;;;;;;;37.07;25.67;;;;;;;-6.64;54.30;100902.16;10423632;28;20783;-63
2022/12/18 06:56:49;;;;;;;47.73;27.93;;;;;;;-7.08;54.08;100989.28;10403098;28;20235;-65
2022/12/18 07:01:51;;;;;;;38.47;24.90;;;;;;;-6.55;53.96;100924.44;10427625;28;20258;-65
2022/12/18 07:06:54;;;;;;;43.00;24.60;;;;;;;-7.04;54.78;100988.31;10404065;28;20234;-64
2022/12/18 07:11:56;;;;;;;45.33;25.97;;;;;;;-7.15;54.34;101032.81;10427464;28;20324;-64
2022/12/18 07:16:58;;;;;;;44.80;25.13;;;;;;;-8.29;56.06;101137.63;10413598;28;20245;-64
2022/12/18 07:22:01;;;;;;;41.83;24.80;;;;;;;-7.51;55.29;101049.31;10414127;28;20266;-64
2022/12/18 07:27:03;;;;;;;45.47;25.90;;;;;;;-6.68;53.98;100960.41;10433557;28;20236;-64
2022/12/18 07:32:06;;;;;;;43.43;25.83;;;;;;;-7.42;54.73;101057.78;10413420;28;20327;-63
2022/12/18 07:37:09;;;;;;;53.83;26.67;;;;;;;-7.15;55.44;100992.03;10429104;28;20248;-63
2022/12/18 07:47:34;;;;;;;48.70;26.80;;;;;;;-7.77;56.01;101080.25;10424070;28;21042;-64
2022/12/18 07:52:36;;;;;;;51.43;27.60;;;;;;;-6.63;54.93;100945.50;10435675;28;20315;-63
2022/12/18 07:57:37;;;;;;;48.10;26.50;;;;;;;-7.31;54.33;101089.59;10413244;28;20241;-64
2022/12/18 08:02:53;;;;;;;53.17;28.87;;;;;;;-6.74;54.60;101004.84;10423905;28;20244;-64
2022/12/18 08:07:55;;;;;;;48.87;27.93;;;;;;;-7.07;55.33;101035.25;10417477;28;20364;-64
2022/12/18 08:12:57;;;;;;;50.97;27.07;;;;;;;-7.49;56.21;101059.69;10425929;28;20784;-64
2022/12/18 08:18:05;;;;;;;57.87;30.37;;;;;;;-6.98;54.99;101025.44;10429155;28;20244;-64
2022/12/18 08:23:13;;;;;;;54.67;27.63;;;;;;;-8.20;55.75;101185.94;10417458;28;20731;-63
2022/12/18 08:28:14;;;;;;;50.77;27.10;;;;;;;-8.19;57.34;101127.91;10425910;28;20232;-64
2022/12/18 08:33:16;;;;;;;46.83;24.43;;;;;;;-7.84;56.93;101081.28;10416730;28;20240;-66
2022/12/18 08:38:18;;;;;;;53.77;29.10;;;;;;;-8.19;57.40;101098.47;10433064;28;20236;-64
2022/12/18 08:48:41;;;;;;;53.50;26.77;;;;;;;-7.07;56.11;100957.19;10412349;28;20330;-63
2022/12/18 08:53:44;;;;;;;51.37;27.97;;;;;;;-8.21;58.87;101005.00;10428844;28;20235;-64
2022/12/18 08:58:46;;;;;;;82.07;29.23;;;;;;;-7.34;56.90;100983.03;10412774;28;20245;-64
2022/12/18 09:03:49;;;;;;;78.73;26.57;;;;;;;-6.87;55.95;100967.88;10426055;28;20237;-64
2022/12/18 09:08:50;;;;;;;50.83;26.63;;;;;;;-6.24;54.44;100950.41;10422797;28;20240;-64
2022/12/18 09:13:53;;;;;;;55.10;28.23;;;;;;;-7.46;55.89;101085.63;10419616;28;20231;-64
2022/12/18 09:18:59;;;;;;;60.43;30.40;;;;;;;-6.90;55.91;100985.34;10428655;28;20262;-65
2022/12/18 09:24:01;;;;;;;62.10;30.80;;;;;;;-8.68;60.12;101088.16;10413568;28;20247;-64
2022/12/18 09:29:03;;;;;;;49.80;27.07;;;;;;;-7.76;58.23;101037.78;10429578;28;20232;-64
2022/12/18 09:34:05;;;;;;;58.20;27.87;;;;;;;-7.60;58.30;101015.75;10414783;28;20666;-64
2022/12/18 09:39:06;;;;;;;53.57;26.40;;;;;;;-7.87;57.47;101074.44;10418051;28;20244;-63
2022/12/18 09:44:18;;;;;;;55.27;27.67;;;;;;;-8.20;58.45;101101.97;10426825;28;20273;-64
2022/12/18 09:49:23;;;;;;;54.63;28.00;;;;;;;-8.31;59.77;101086.59;10408789;28;20242;-65
2022/12/18 09:54:43;;;;;;;42.87;25.07;;;;;;;-7.80;57.63;101088.97;10428690;28;20239;-64
2022/12/18 09:59:52;;;;;;;39.40;19.80;;;;;;;-8.46;57.87;101171.69;10413217;28;20293;-64
2022/12/18 10:05:05;;;;;;;37.50;21.77;;;;;;;-7.04;56.63;100999.56;10426247;28;20285;-65
2022/12/18 10:10:26;;;;;;;38.90;23.23;;;;;;;-7.32;56.79;101036.69;10421670;28;20331;-64
2022/12/18 10:15:57;;;;;;;45.40;23.13;;;;;;;-7.01;56.80;100989.09;10410171;28;20228;-64
2022/12/18 10:21:23;;;;;;;47.17;23.90;;;;;;;-7.63;57.34;101064.34;10419175;28;20781;-65
2022/12/18 10:26:25;;;;;;;41.83;23.10;;;;;;;-6.41;55.69;100963.09;10409627;28;20232;-66
2022/12/18 10:31:27;;;;;;;39.37;22.87;;;;;;;-7.67;57.11;101104.31;10428840;28;20234;-65
2022/12/18 10:36:29;;;;;;;44.57;21.37;;;;;;;-7.12;57.92;100992.88;10420523;28;20248;-64
2022/12/18 10:41:32;;;;;;;44.83;25.13;;;;;;;-6.88;55.93;101046.84;10421067;28;20247;-65
2022/12/18 10:46:34;;;;;;;47.77;27.57;;;;;;;-7.91;58.63;101103.94;10430740;28;20240;-65
2022/12/18 10:51:37;;;;;;;54.23;25.73;;;;;;;-6.30;57.39;100887.22;10414015;28;20329;-64
2022/12/18 10:56:40;;;;;;;57.57;29.90;;;;;;;-8.52;59.84;101137.19;10428744;28;20241;-65
2022/12/18 11:06:24;;;;;;;66.13;34.47;;;;;;;-7.61;60.88;100936.03;10591945;27;20694;-64
2022/12/18 11:11:26;;;;;;;56.13;29.90;;;;;;;-8.79;62.38;101095.28;10476771;28;20240;-65
2022/12/18 11:16:32;;;;;;;66.37;30.13;;;;;;;-7.81;61.34;100943.47;10449519;28;20236;-63
2022/12/18 11:21:40;;;;;;;62.77;27.33;;;;;;;-8.94;62.16;101114.56;10485179;28;20230;-64
2022/12/18 11:26:43;;;;;;;65.07;32.93;;;;;;;-8.01;60.16;101017.53;10474821;28;20247;-63
2022/12/18 11:31:45;;;;;;;57.10;30.17;;;;;;;-7.84;60.49;100993.75;10448039;28;20235;-64
2022/12/18 11:36:48;;;;;;;67.90;38.93;;;;;;;-7.26;59.69;100925.59;10440253;28;20264;-64
2022/12/18 11:42:09;;;;;;;82.90;41.40;;;;;;;-7.46;60.04;100947.78;10446015;28;20231;-65
2022/12/18 11:47:15;;;;;;;55.17;28.53;;;;;;;-7.10;59.38;100923.44;10479695;28;20240;-66
2022/12/18 11:52:38;;;;;;;53.87;30.40;;;;;;;-7.02;59.41;100909.31;10476647;28;20245;-65
2022/12/18 11:58:06;;;;;;;127.70;71.97;;;;;;;-7.65;60.67;100968.22;10471417;28;20239;-65
2022/12/18 12:03:24;;;;;;;148.33;66.93;;;;;;;-7.48;60.42;100944.38;10445833;28;20239;-64
2022/12/18 12:08:35;;;;;;;57.97;30.53;;;;;;;-7.11;59.28;100932.13;10486915;28;20254;-65
2022/12/18 12:14:09;;;;;;;64.43;34.50;;;;;;;-7.75;60.72;100990.13;10470970;28;20241;-65
2022/12/18 12:19:10;;;;;;;70.37;40.23;;;;;;;-6.92;59.20;100909.06;10408706;28;20250;-64
2022/12/18 12:24:45;;;;;;;61.53;32.53;;;;;;;-7.24;58.98;100962.84;10450552;28;20227;-64
2022/12/18 12:30:06;;;;;;;70.83;33.63;;;;;;;-8.23;61.41;101029.31;10446654;28;21140;-64
2022/12/18 12:35:16;;;;;;;51.27;26.93;;;;;;;-8.00;62.25;100971.66;10448524;28;20809;-63
2022/12/18 12:40:19;;;;;;;60.20;29.90;;;;;;;-6.71;59.68;100860.69;10452129;28;20232;-63
2022/12/18 12:46:08;;;;;;;51.20;26.53;;;;;;;-8.12;62.38;100962.41;10449910;28;20244;-64
2022/12/18 12:51:21;;;;;;;57.57;29.47;;;;;;;-7.54;61.60;100926.31;10447503;28;20362;-65
2022/12/18 12:56:27;;;;;;;51.33;28.77;;;;;;;-7.94;60.86;100989.66;10443465;28;20690;-64
2022/12/18 13:01:47;;;;;;;54.17;29.23;;;;;;;-7.59;61.85;100865.78;10448573;28;20280;-65
2022/12/18 13:07:03;;;;;;;56.13;30.67;;;;;;;-7.35;61.03;100865.13;10454725;28;20228;-61
2022/12/18 13:17:35;;;;;;;43.63;25.00;;;;;;;-7.38;60.75;100873.03;10444765;28;20826;-66
2022/12/18 13:22:48;;;;;;;47.70;26.20;;;;;;;-7.72;60.50;100945.84;10452929;28;20806;-66
2022/12/18 13:28:04;;;;;;;66.23;35.53;;;;;;;-7.67;60.96;100917.13;10461149;28;20288;-64
2022/12/18 13:33:17;;;;;;;55.90;33.53;;;;;;;-6.42;59.05;100792.94;10438399;28;20238;-66
2022/12/18 13:38:31;;;;;;;43.73;23.70;;;;;;;-8.29;61.69;100980.97;10437834;28;20238;-67
2022/12/18 13:43:36;;;;;;;45.40;24.57;;;;;;;-7.92;61.86;100907.34;10442903;28;20232;-65
2022/12/18 13:48:38;;;;;;;47.03;26.50;;;;;;;-8.23;63.33;100902.03;10440161;28;20272;-69
2022/12/18 13:53:49;;;;;;;48.23;28.40;;;;;;;-9.26;64.79;100993.22;10438864;28;20228;-64
2022/12/18 13:59:17;;;;;;;44.47;25.83;;;;;;;-7.76;61.92;100842.84;10443495;28;20233;-64
2022/12/18 14:04:23;;;;;;;42.33;24.10;;;;;;;-7.55;62.56;100772.06;10431201;28;20343;-65
2022/12/18 14:09:29;;;;;;;42.27;23.90;;;;;;;-8.23;62.39;100920.22;10443732;28;20249;-65
2022/12/18 14:14:33;;;;;;;47.07;25.77;;;;;;;-7.90;62.99;100817.22;10433307;28;20234;-69
2022/12/18 14:19:35;;;;;;;45.87;23.87;;;;;;;-7.47;61.32;100808.25;10438468;28;20330;-66
2022/12/18 14:24:37;;;;;;;45.43;23.80;;;;;;;-8.21;62.34;100923.63;10441905;28;20245;-64
2022/12/18 14:29:42;;;;;;;44.73;24.97;;;;;;;-8.15;62.64;100887.13;10440345;28;20260;-66
2022/12/18 14:34:50;;;;;;;41.33;24.20;;;;;;;-7.80;62.59;100820.41;10432727;28;20924;-64
2022/12/18 14:40:02;;;;;;;41.40;23.53;;;;;;;-7.12;61.56;100732.69;10438468;28;20873;-68
2022/12/18 14:45:38;;;;;;;35.40;21.33;;;;;;;-7.50;60.36;100857.72;10447571;28;20230;-66
2022/12/18 14:50:44;;;;;;;38.90;22.10;;;;;;;-7.34;60.98;100796.59;10439707;28;20858;-64
2022/12/18 14:55:47;;;;;;;39.50;22.87;;;;;;;-6.97;59.92;100779.91;10439050;28;20233;-66
2022/12/18 15:00:49;;;;;;;37.67;22.30;;;;;;;-7.32;60.16;100825.16;10435906;28;20326;-66
2022/12/18 15:05:51;;;;;;;41.83;24.93;;;;;;;-7.53;60.86;100834.44;10449274;28;20310;-66
2022/12/18 15:10:53;;;;;;;43.70;24.37;;;;;;;-6.61;59.81;100724.97;10446060;28;20232;-64
2022/12/18 15:16:01;;;;;;;40.13;21.77;;;;;;;-7.93;61.36;100880.50;10439660;28;20239;-64
2022/12/18 15:21:10;;;;;;;39.33;22.50;;;;;;;-7.71;60.47;100864.38;10437651;28;20707;-66
2022/12/18 15:26:15;;;;;;;34.03;22.40;;;;;;;-6.87;59.35;100790.03;10416577;28;20293;-66
2022/12/18 15:31:30;;;;;;;38.60;22.93;;;;;;;-7.31;60.68;100816.47;10444402;28;20238;-63
2022/12/18 15:36:36;;;;;;;44.50;24.57;;;;;;;-7.72;60.69;100865.25;10433782;28;20231;-63
2022/12/18 15:41:38;;;;;;;47.03;27.53;;;;;;;-7.32;60.42;100809.56;10436883;28;20318;-63
2022/12/18 15:46:39;;;;;;;48.93;26.40;;;;;;;-7.48;60.96;100813.50;10432689;28;20243;-63
2022/12/18 15:51:41;;;;;;;51.30;27.60;;;;;;;-8.20;62.21;100876.84;10443771;28;20282;-67
2022/12/18 16:02:15;;;;;;;49.70;25.80;;;;;;;-7.42;60.20;100823.72;10445523;28;20239;-64
2022/12/18 16:07:18;;;;;;;46.57;26.27;;;;;;;-6.84;58.86;100784.72;10438078;28;20248;-64
2022/12/18 16:12:26;;;;;;;52.60;26.77;;;;;;;-6.52;57.74;100799.34;10442842;28;20228;-63
2022/12/18 16:17:27;;;;;;;40.60;24.87;;;;;;;-7.00;58.77;100829.44;10438788;28;20228;-64
2022/12/18 16:22:30;;;;;;;44.40;25.53;;;;;;;-7.05;58.40;100851.28;10439541;28;20294;-64
2022/12/18 16:27:31;;;;;;;47.07;27.83;;;;;;;-5.98;57.00;100773.25;10439287;28;20297;-64
2022/12/18 16:32:33;;;;;;;46.90;26.93;;;;;;;-6.63;57.28;100879.56;10439462;28;20238;-63
2022/12/18 16:37:35;;;;;;;51.97;29.47;;;;;;;-5.72;56.10;100788.81;10439021;28;20652;-66
2022/12/18 16:42:39;;;;;;;45.97;27.03;;;;;;;-5.61;55.98;100795.41;10440088;28;20321;-66
2022/12/18 16:47:40;;;;;;;46.00;27.27;;;;;;;-5.59;55.39;100819.69;10446082;28;22352;-66
2022/12/18 16:52:42;;;;;;;57.83;28.87;;;;;;;-5.20;54.64;100812.16;10444453;28;20235;-66
2022/12/18 16:57:44;;;;;;;56.07;30.13;;;;;;;-6.42;56.96;100889.31;10434712;28;20244;-66
2022/12/18 17:02:46;;;;;;;44.23;27.33;;;;;;;-5.62;55.84;100838.06;10450497;28;20411;-65
2022/12/18 17:07:48;;;;;;;50.70;26.77;;;;;;;-5.98;56.09;100860.13;10439585;28;20249;-66
2022/12/18 17:12:50;;;;;;;49.50;27.47;;;;;;;-5.25;54.79;100826.31;10440687;28;20318;-66
2022/12/18 17:17:51;;;;;;;49.07;26.77;;;;;;;-5.33;55.02;100816.97;10451607;28;20285;-66
2022/12/18 17:22:54;;;;;;;47.00;26.90;;;;;;;-5.17;54.20;100840.78;10437791;28;20729;-66
2022/12/18 17:27:57;;;;;;;133.10;52.70;;;;;;;-6.13;56.12;100916.22;10432637;28;20236;-66
2022/12/18 17:32:58;;;;;;;66.03;34.47;;;;;;;-5.32;55.34;100836.13;10436380;28;20804;-65
2022/12/18 17:38:00;;;;;;;62.23;33.17;;;;;;;-5.55;55.27;100863.03;10441462;28;20226;-66
2022/12/18 17:43:02;;;;;;;60.23;31.53;;;;;;;-4.84;54.71;100787.31;10443534;28;20261;-66
2022/12/18 17:48:05;;;;;;;58.23;32.73;;;;;;;-5.17;54.32;100848.59;10444753;28;20229;-66
2022/12/18 17:53:06;;;;;;;48.90;28.67;;;;;;;-5.76;54.89;100891.53;10438581;28;20231;-66
2022/12/18 17:58:08;;;;;;;47.60;28.43;;;;;;;-6.11;55.50;100934.41;10443258;28;20232;-66
2022/12/18 18:03:10;;;;;;;54.00;29.53;;;;;;;-5.80;56.07;100876.88;10445953;28;20255;-66
2022/12/18 18:08:12;;;;;;;54.10;29.53;;;;;;;-5.02;55.08;100805.41;10450490;28;20233;-66
2022/12/18 18:18:47;;;;;;;54.17;29.20;;;;;;;-4.57;53.82;100812.34;10444018;28;20237;-65
2022/12/18 18:23:49;;;;;;;61.07;36.07;;;;;;;-5.84;56.60;100901.38;10433759;28;20261;-65
2022/12/18 18:28:53;;;;;;;46.83;29.73;;;;;;;-5.82;55.87;100896.97;10446750;28;20235;-66
2022/12/18 18:33:55;;;;;;;58.77;31.63;;;;;;;-6.12;56.95;100904.03;10440179;28;20849;-65
2022/12/18 18:38:59;;;;;;;52.33;30.07;;;;;;;-5.74;56.48;100860.19;10439071;28;20614;-65
2022/12/18 18:44:01;;;;;;;51.47;29.37;;;;;;;-5.82;56.47;100878.69;10442123;28;20242;-63
2022/12/18 18:49:04;;;;;;;43.87;27.47;;;;;;;-6.12;57.11;100894.44;10442088;28;20237;-65
2022/12/18 18:54:06;;;;;;;49.97;28.27;;;;;;;-5.98;57.50;100852.31;10441144;28;20690;-65
2022/12/18 18:59:07;;;;;;;54.03;31.93;;;;;;;-5.95;58.03;100828.72;10433469;28;20581;-65
2022/12/18 19:04:09;;;;;;;47.50;30.83;;;;;;;-5.42;56.21;100817.31;10437168;28;20261;-65
2022/12/18 19:09:11;;;;;;;94.43;40.63;;;;;;;-5.65;55.99;100873.75;10433071;28;20750;-66
2022/12/18 19:14:14;;;;;;;61.27;32.23;;;;;;;-5.03;55.35;100808.94;10448859;28;20231;-68
2022/12/18 19:19:19;;;;;;;46.50;26.87;;;;;;;-4.84;54.40;100808.22;10455441;28;20235;-67
2022/12/18 19:24:23;;;;;;;47.83;27.77;;;;;;;-4.75;54.61;100789.56;10460952;28;20622;-68
2022/12/18 19:29:25;;;;;;;48.07;27.43;;;;;;;-4.58;54.31;100792.38;10461371;28;20433;-68
2022/12/18 19:34:27;;;;;;;55.53;30.67;;;;;;;-4.97;54.88;100840.03;10461829;28;20236;-69
2022/12/18 19:39:28;;;;;;;56.03;31.33;;;;;;;-7.05;59.24;100921.56;10463000;28;20575;-68
2022/12/18 19:44:30;;;;;;;49.50;29.90;;;;;;;-6.47;59.45;100895.56;10466924;28;20780;-67
2022/12/18 19:49:32;;;;;;;49.17;31.63;;;;;;;-5.18;56.66;100835.59;10462152;28;20238;-68
2022/12/18 19:54:35;;;;;;;53.07;31.70;;;;;;;-5.17;56.45;100832.06;10464454;28;20619;-68
2022/12/18 19:59:37;;;;;;;51.23;30.40;;;;;;;-4.15;55.04;100754.00;10464880;28;20396;-68
2022/12/18 20:04:40;;;;;;;51.77;30.20;;;;;;;-4.42;55.38;100789.97;10455458;28;20320;-70
2022/12/18 20:09:41;;;;;;;45.27;28.77;;;;;;;-4.78;55.21;100845.41;10458282;28;20240;-68
2022/12/18 20:14:43;;;;;;;44.47;28.60;;;;;;;-4.57;55.55;100822.78;10448118;28;20275;-69
2022/12/18 20:19:45;;;;;;;43.40;27.13;;;;;;;-4.49;55.73;100817.28;10459745;28;20242;-69
2022/12/18 20:24:47;;;;;;;52.73;30.63;;;;;;;-4.29;55.59;100811.25;10461139;28;20590;-70
2022/12/18 20:29:50;;;;;;;73.63;37.63;;;;;;;-4.56;56.23;100814.06;10460392;28;20874;-69
2022/12/18 20:34:52;;;;;;;65.03;35.23;;;;;;;-4.36;55.90;100813.25;10450703;28;20246;-70
2022/12/18 20:39:55;;;;;;;53.00;31.30;;;;;;;-4.85;56.94;100815.22;10456338;28;20233;-69
2022/12/18 20:44:56;;;;;;;54.90;30.00;;;;;;;-5.19;57.38;100868.69;10464981;28;20236;-69
2022/12/18 20:49:59;;;;;;;49.10;30.10;;;;;;;-5.00;56.81;100837.53;10457705;28;20501;-68
2022/12/18 20:55:01;;;;;;;50.50;28.87;;;;;;;-3.75;54.71;100769.75;10458356;28;20230;-70
2022/12/18 21:00:03;;;;;;;47.13;28.33;;;;;;;-5.12;57.05;100861.50;10457938;28;20239;-70
2022/12/18 21:05:05;;;;;;;48.90;29.93;;;;;;;-5.94;59.79;100876.50;10455417;28;20237;-68
2022/12/18 21:10:07;;;;;;;49.43;30.57;;;;;;;-5.34;59.14;100819.66;10462653;28;20733;-69
2022/12/18 21:15:09;;;;;;;46.33;27.93;;;;;;;-5.48;58.52;100839.28;10457836;28;20239;-69
2022/12/18 21:20:12;;;;;;;45.27;26.57;;;;;;;-4.33;56.35;100762.59;10460535;28;20229;-70
2022/12/18 21:25:18;;;;;;;49.80;26.47;;;;;;;-4.44;56.04;100789.19;10432619;28;20711;-68
2022/12/18 21:30:20;;;;;;;47.67;27.17;;;;;;;-4.91;56.86;100802.38;10433978;28;20234;-65
2022/12/18 21:35:21;;;;;;;49.10;29.73;;;;;;;-5.16;58.14;100789.41;10447119;28;20889;-66
2022/12/18 21:40:26;;;;;;;49.93;28.27;;;;;;;-5.00;58.67;100795.75;10432289;28;20240;-66
2022/12/18 21:45:28;;;;;;;47.40;28.57;;;;;;;-4.49;56.71;100783.31;10436705;28;20262;-66
2022/12/18 21:50:29;;;;;;;58.07;31.73;;;;;;;-4.25;56.23;100752.69;10434506;28;20239;-66
2022/12/18 21:55:31;;;;;;;52.37;29.90;;;;;;;-4.14;55.71;100778.38;10437133;28;20233;-66
2022/12/18 22:00:33;;;;;;;55.03;31.50;;;;;;;-3.79;55.19;100769.03;10437006;28;20969;-67
2022/12/18 22:05:34;;;;;;;51.30;30.90;;;;;;;-4.74;56.96;100826.06;10436838;28;20235;-66
2022/12/18 22:10:37;;;;;;;50.17;29.23;;;;;;;-4.37;55.87;100805.47;10434297;28;20288;-66
2022/12/18 22:15:39;;;;;;;49.93;29.40;;;;;;;-3.71;56.03;100734.66;10436458;28;20373;-66
2022/12/18 22:20:40;;;;;;;52.50;31.53;;;;;;;-4.44;57.33;100804.03;10434188;28;20237;-66
2022/12/18 22:25:42;;;;;;;45.00;27.70;;;;;;;-4.31;55.89;100828.75;10437945;28;20243;-66
2022/12/18 22:30:44;;;;;;;50.33;29.37;;;;;;;-3.84;56.18;100778.84;10434831;28;20235;-65
2022/12/18 22:35:45;;;;;;;47.63;28.73;;;;;;;-4.24;56.34;100801.44;10444018;28;20236;-66
2022/12/18 22:40:48;;;;;;;45.20;27.30;;;;;;;-4.16;56.67;100809.81;10433032;28;20313;-65
2022/12/18 22:45:52;;;;;;;49.87;27.97;;;;;;;-3.94;55.69;100789.75;10438083;28;20244;-64
2022/12/18 22:50:55;;;;;;;48.70;29.13;;;;;;;-5.14;57.95;100871.97;10434876;28;20240;-65
2022/12/18 22:56:01;;;;;;;46.90;29.60;;;;;;;-4.85;56.66;100883.09;10435485;28;20773;-66
2022/12/18 23:01:03;;;;;;;47.50;28.73;;;;;;;-5.60;59.71;100910.13;10439265;28;20728;-66
2022/12/18 23:06:06;;;;;;;54.60;32.87;;;;;;;-4.68;57.55;100830.22;10438080;28;20246;-66
2022/12/18 23:11:09;;;;;;;52.33;32.03;;;;;;;-4.14;56.93;100788.84;10440115;28;20238;-66
2022/12/18 23:16:13;;;;;;;53.97;33.30;;;;;;;-4.57;57.23;100832.41;10431745;28;20250;-66
2022/12/18 23:21:18;;;;;;;58.97;33.03;;;;;;;-3.80;57.00;100745.56;10438489;28;20778;-66
2022/12/18 23:26:22;;;;;;;49.97;27.80;;;;;;;-4.53;56.93;100839.22;10433795;28;20620;-66